Terminal Aerodrome Forecast
Issued by NWS Sioux Falls, SD

Home | Current Version | Previous Version | Text Only | Print | Product List | Glossary On
Versions: 1 2 3 4 5 6 7 8 9 10 11 12
000
FTUS43 KFSD 190520
TAFSUX
TAF
KSUX 190520Z 1906/2006 14006KT P6SM BKN200
     FM191600 19007KT P6SM BKN150
     FM192100 23010KT P6SM BKN250
     FM200300 31004KT P6SM BKN100=

USA.gov is the U.S. government's official web portal to all federal, state and local government web resources and services.